Time;durP1;ratioP1;P1;durP2;ratioP2;P2;SDS_P1;SDS_P2;PMS_P1;PMS_P2;Temp;Humidity;BMP_temperature;BMP_pressure;BME280_temperature;BME280_humidity;BME280_pressure;Samples;Min_cycle;Max_cycle;Signal;HPM_P1;HPM_P2
2022/02/17 00:01:00;;;;;;;2.55;0.50;;;;;;;11.39;89.18;97433.56;2624210;39;20450;-65
2022/02/17 00:03:33;;;;;;;1.95;0.60;;;;;;;11.37;90.05;97425.06;2623612;54;20030;-62
2022/02/17 00:06:03;;;;;;;0.60;0.52;;;;;;;11.37;89.85;97424.25;2625893;39;20512;-64
2022/02/17 00:08:33;;;;;;;0.68;0.68;;;;;;;11.34;90.66;97430.78;2624905;54;20093;-64
2022/02/17 00:11:03;;;;;;;0.60;0.60;;;;;;;11.31;90.88;97407.47;2623991;54;20049;-62
2022/02/17 00:13:33;;;;;;;0.60;0.60;;;;;;;11.35;90.62;97419.19;2622274;54;20030;-66
2022/02/17 00:16:06;;;;;;;1.13;0.60;;;;;;;11.35;90.97;97411.25;2622600;54;20038;-64
2022/02/17 00:18:39;;;;;;;0.50;0.50;;;;;;;11.38;90.72;97416.06;2623156;54;20027;-65
2022/02/17 00:21:09;;;;;;;0.77;0.60;;;;;;;11.37;90.61;97438.28;2623534;54;20041;-63
2022/02/17 00:23:38;;;;;;;0.50;0.50;;;;;;;11.36;90.95;97423.44;2623036;47;20054;-65
2022/02/17 00:26:08;;;;;;;0.50;0.50;;;;;;;11.39;90.51;97415.06;2622453;47;20637;-65
2022/02/17 00:28:38;;;;;;;0.80;0.80;;;;;;;11.44;90.61;97416.22;2623474;54;20593;-65
2022/02/17 00:31:07;;;;;;;0.80;0.65;;;;;;;11.45;90.09;97405.38;2623259;54;20038;-65
2022/02/17 00:33:40;;;;;;;1.95;0.98;;;;;;;11.48;89.77;97393.53;2623267;39;20432;-64
2022/02/17 00:36:11;;;;;;;0.73;0.60;;;;;;;11.46;90.19;97391.09;2622806;54;20030;-65
2022/02/17 00:38:40;;;;;;;0.80;0.80;;;;;;;11.42;90.64;97397.91;2623137;54;20038;-64
2022/02/17 00:41:12;;;;;;;0.60;0.60;;;;;;;11.44;90.55;97398.47;2623359;54;20041;-64
2022/02/17 00:43:43;;;;;;;0.57;0.57;;;;;;;11.46;90.59;97396.41;2624298;54;20023;-65
2022/02/17 00:46:12;;;;;;;1.00;0.60;;;;;;;11.49;90.37;97403.06;2623183;47;20568;-65
2022/02/17 00:48:47;;;;;;;0.77;0.47;;;;;;;11.54;89.61;97409.28;2624435;39;20420;-65
2022/02/17 00:51:17;;;;;;;0.60;0.60;;;;;;;11.55;89.43;97410.06;2624204;54;20023;-64
2022/02/17 00:53:47;;;;;;;0.98;0.68;;;;;;;11.56;88.75;97403.75;2624246;47;20042;-65
2022/02/17 00:56:17;;;;;;;1.00;0.60;;;;;;;11.56;89.40;97417.81;2620315;54;20031;-66
2022/02/17 00:58:52;;;;;;;1.55;0.80;;;;;;;11.55;89.37;97396.84;2620563;47;20030;-65
2022/02/17 01:01:31;;;;;;;0.70;0.63;;;;;;;11.55;89.55;97388.91;2623173;47;20037;-62
2022/02/17 01:04:03;;;;;;;0.70;0.70;;;;;;;11.55;89.65;97363.25;2625810;54;20034;-62
2022/02/17 01:06:38;;;;;;;1.00;0.70;;;;;;;11.57;89.66;97363.03;2625617;54;20034;-63
2022/02/17 01:09:08;;;;;;;0.50;0.50;;;;;;;11.56;89.96;97385.25;2625652;47;20026;-64
2022/02/17 01:11:38;;;;;;;1.10;0.70;;;;;;;11.54;89.94;97382.00;2625453;54;20032;-63
2022/02/17 01:14:08;;;;;;;0.82;0.70;;;;;;;11.54;90.18;97389.94;2625463;54;20030;-62
2022/02/17 01:16:39;;;;;;;0.70;0.70;;;;;;;11.60;89.35;97384.53;2625393;54;20089;-63
2022/02/17 01:19:18;;;;;;;0.63;0.50;;;;;;;11.60;89.43;97391.69;2625108;51;20081;-63
2022/02/17 01:21:50;;;;;;;0.55;0.55;;;;;;;11.58;89.68;97380.50;2624779;47;20121;-63
2022/02/17 01:24:21;;;;;;;0.50;0.50;;;;;;;11.59;89.03;97353.81;2624861;54;20022;-63
2022/02/17 01:26:51;;;;;;;0.68;0.60;;;;;;;11.63;88.94;97368.19;2625365;54;20110;-63
2022/02/17 01:29:22;;;;;;;0.70;0.63;;;;;;;11.66;88.82;97335.13;2625871;54;20142;-63
2022/02/17 01:31:51;;;;;;;0.88;0.75;;;;;;;11.64;88.72;97334.59;2626468;54;20030;-63
2022/02/17 01:34:26;;;;;;;1.02;0.50;;;;;;;11.63;88.96;97336.44;2625191;47;20034;-63
2022/02/17 01:37:00;;;;;;;0.68;0.50;;;;;;;11.63;89.22;97349.66;2626479;54;20023;-63
2022/02/17 01:39:32;;;;;;;0.40;0.40;;;;;;;11.65;88.75;97349.41;2626572;54;20033;-63
2022/02/17 01:42:09;;;;;;;0.98;0.70;;;;;;;11.70;88.47;97327.53;2626198;39;20544;-63
2022/02/17 01:44:45;;;;;;;0.40;0.40;;;;;;;11.69;88.48;97329.38;2626505;54;20049;-63
2022/02/17 01:47:18;;;;;;;0.82;0.40;;;;;;;11.67;88.72;97299.69;2625927;51;20038;-64
2022/02/17 01:49:50;;;;;;;0.40;0.40;;;;;;;11.68;88.32;97330.44;2625807;54;20035;-63
2022/02/17 01:52:21;;;;;;;1.05;0.40;;;;;;;11.74;87.99;97318.09;2626096;54;20556;-63
2022/02/17 01:54:51;;;;;;;1.20;0.50;;;;;;;11.75;87.70;97344.31;2625832;47;20027;-63
2022/02/17 01:57:26;;;;;;;0.52;0.52;;;;;;;11.72;88.26;97320.97;2626184;54;20086;-63
2022/02/17 02:00:00;;;;;;;0.90;0.50;;;;;;;11.76;87.68;97318.66;2625796;54;20557;-63
2022/02/17 02:02:46;;;;;;;0.50;0.50;;;;;;;11.74;88.24;97321.53;2626321;54;20034;-63
2022/02/17 02:05:26;;;;;;;0.45;0.45;;;;;;;11.73;88.50;97322.59;2625491;47;20042;-63
2022/02/17 02:07:56;;;;;;;1.95;0.50;;;;;;;11.75;88.36;97335.56;2626382;54;20050;-63
2022/02/17 02:10:29;;;;;;;1.38;0.30;;;;;;;11.69;89.33;97316.16;2626050;54;20123;-64
2022/02/17 02:13:00;;;;;;;2.08;0.52;;;;;;;11.73;88.79;97301.41;2625958;54;20065;-64
2022/02/17 02:15:52;;;;;;;1.38;0.55;;;;;;;11.72;89.69;97307.75;2625713;47;20037;-63
2022/02/17 02:18:26;;;;;;;2.88;0.47;;;;;;;11.77;88.61;97336.16;2625231;54;20027;-63
2022/02/17 02:21:00;;;;;;;1.42;0.60;;;;;;;11.78;88.59;97312.06;2624616;47;20022;-63
2022/02/17 02:23:34;;;;;;;0.50;0.50;;;;;;;11.79;88.11;97316.31;2625683;39;20530;-63
2022/02/17 02:26:07;;;;;;;0.85;0.47;;;;;;;11.80;88.12;97311.84;2626360;39;20697;-63
2022/02/17 02:28:37;;;;;;;2.00;0.40;;;;;;;11.80;88.79;97323.25;2625102;54;20035;-63
2022/02/17 02:31:09;;;;;;;0.40;0.40;;;;;;;11.80;88.23;97315.31;2625293;47;20027;-63
2022/02/17 02:33:40;;;;;;;0.50;0.45;;;;;;;11.85;87.78;97315.44;2625318;54;20018;-63
2022/02/17 02:36:12;;;;;;;1.45;0.30;;;;;;;11.86;87.64;97317.03;2625584;54;20037;-63
2022/02/17 02:38:58;;;;;;;0.30;0.30;;;;;;;11.87;87.28;97318.63;2625777;47;20023;-63
2022/02/17 02:41:39;;;;;;;0.30;0.30;;;;;;;11.95;85.54;97328.03;2625793;54;20035;-65
2022/02/17 02:44:09;;;;;;;1.00;0.32;;;;;;;12.03;84.30;97330.31;2626407;54;20027;-63
2022/02/17 02:46:45;;;;;;;0.30;0.30;;;;;;;12.09;84.42;97320.63;2625573;54;20030;-63
2022/02/17 02:49:14;;;;;;;0.65;0.22;;;;;;;12.03;85.13;97327.66;2625573;47;20060;-63
2022/02/17 02:51:46;;;;;;;0.90;0.40;;;;;;;11.99;85.22;97342.41;2625667;47;20034;-67
2022/02/17 02:54:18;;;;;;;0.28;0.28;;;;;;;12.00;85.26;97340.56;2625529;54;20066;-63
2022/02/17 02:56:47;;;;;;;0.30;0.30;;;;;;;11.98;85.74;97346.09;2625910;51;20038;-63
2022/02/17 02:59:17;;;;;;;0.45;0.40;;;;;;;12.00;85.27;97332.63;2626215;54;20053;-63
2022/02/17 03:01:47;;;;;;;0.30;0.30;;;;;;;12.02;85.42;97343.78;2625271;54;20609;-63
2022/02/17 03:04:17;;;;;;;0.30;0.30;;;;;;;12.05;84.79;97344.13;2626419;39;20465;-63
2022/02/17 03:06:52;;;;;;;1.77;0.50;;;;;;;11.99;85.61;97341.63;2626160;39;20343;-63
2022/02/17 03:09:24;;;;;;;0.30;0.30;;;;;;;11.93;86.72;97350.53;2625367;54;20034;-63
2022/02/17 03:11:54;;;;;;;0.30;0.20;;;;;;;11.79;88.25;97363.19;2625584;47;20034;-63
2022/02/17 03:14:26;;;;;;;0.40;0.40;;;;;;;11.72;89.82;97365.97;2624825;54;20041;-63
2022/02/17 03:16:56;;;;;;;0.73;0.30;;;;;;;11.65;90.79;97370.59;2625072;54;20034;-63
2022/02/17 03:19:25;;;;;;;0.47;0.40;;;;;;;11.61;91.51;97364.16;2625333;54;20035;-64
2022/02/17 03:21:59;;;;;;;0.77;0.32;;;;;;;11.58;91.24;97388.44;2625578;54;20030;-63
2022/02/17 03:24:30;;;;;;;0.30;0.30;;;;;;;11.56;91.55;97395.81;2624365;47;20026;-63
2022/02/17 03:26:59;;;;;;;0.43;0.35;;;;;;;11.60;90.33;97387.19;2621642;47;20034;-63
2022/02/17 03:29:29;;;;;;;1.23;0.40;;;;;;;11.55;90.55;97380.97;2624521;39;20448;-63
2022/02/17 03:32:04;;;;;;;2.25;0.47;;;;;;;11.53;90.73;97401.56;2621257;47;20565;-63
2022/02/17 03:34:35;;;;;;;0.50;0.50;;;;;;;11.52;90.01;97421.94;2623413;47;20034;-63
2022/02/17 03:37:07;;;;;;;3.58;0.73;;;;;;;11.44;89.68;97434.72;2623700;54;20107;-63
2022/02/17 03:39:39;;;;;;;0.82;0.40;;;;;;;11.31;91.57;97480.75;2623445;47;20038;-63
2022/02/17 03:42:22;;;;;;;1.02;0.68;;;;;;;11.24;91.83;97466.81;2623265;54;20034;-63
2022/02/17 03:44:59;;;;;;;1.70;0.60;;;;;;;11.24;92.17;97483.50;2623310;47;20077;-63
2022/02/17 03:47:33;;;;;;;0.95;0.60;;;;;;;11.26;91.25;97476.13;2624050;47;20094;-63
2022/02/17 03:50:11;;;;;;;0.40;0.40;;;;;;;11.31;91.38;97478.09;2624704;39;20457;-63
2022/02/17 03:52:44;;;;;;;0.50;0.50;;;;;;;11.34;90.36;97485.56;2623080;47;20572;-63
2022/02/17 03:55:18;;;;;;;1.25;0.60;;;;;;;11.37;88.16;97495.69;2621191;54;20037;-63
2022/02/17 03:57:50;;;;;;;1.95;1.05;;;;;;;11.37;87.14;97488.56;2622211;54;20041;-63
2022/02/17 04:00:25;;;;;;;2.20;0.85;;;;;;;11.38;83.47;97502.59;2621358;54;20029;-65
2022/02/17 04:02:58;;;;;;;1.45;0.70;;;;;;;11.35;81.56;97508.34;2621675;54;20049;-63
2022/02/17 04:05:32;;;;;;;1.45;0.60;;;;;;;11.31;81.26;97505.34;2622006;47;20037;-63
2022/02/17 04:08:08;;;;;;;2.92;0.70;;;;;;;11.25;80.85;97521.31;2622142;39;20446;-63
2022/02/17 04:10:41;;;;;;;4.05;1.02;;;;;;;11.17;80.97;97527.75;2621996;54;20026;-63
2022/02/17 04:13:19;;;;;;;3.35;1.05;;;;;;;11.12;80.13;97544.31;2622535;39;20425;-63
2022/02/17 04:15:51;;;;;;;3.08;1.08;;;;;;;11.07;79.71;97554.75;2621185;47;20053;-63
2022/02/17 04:18:30;;;;;;;3.33;1.17;;;;;;;11.01;79.40;97557.50;2622211;31;20541;-63
2022/02/17 04:21:09;;;;;;;3.90;1.10;;;;;;;10.96;78.51;97567.94;2621836;47;20031;-64
2022/02/17 04:23:52;;;;;;;44.97;25.45;;;;;;;10.91;78.19;97577.34;2621844;46;20038;-63
2022/02/17 04:26:27;;;;;;;3.25;1.58;;;;;;;10.86;77.16;97603.66;2621471;47;20077;-63
2022/02/17 04:29:00;;;;;;;;;;;;;;;10.83;74.33;97624.44;2622191;54;20038;-63
2022/02/17 04:31:35;;;;;;;5.13;1.42;;;;;;;10.80;72.71;97617.75;2621145;47;19993;-63
2022/02/17 04:34:05;;;;;;;11.68;2.17;;;;;;;10.78;69.74;97621.69;2621040;47;20061;-63
2022/02/17 04:36:35;;;;;;;8.13;1.65;;;;;;;10.74;70.54;97633.72;2622215;54;20042;-63
2022/02/17 04:39:08;;;;;;;7.80;1.67;;;;;;;10.64;69.21;97644.78;2621678;54;20022;-63
2022/02/17 04:44:27;;;;;;;11.45;2.20;;;;;;;10.51;68.99;97666.91;2621394;54;20557;-63
2022/02/17 04:47:01;;;;;;;10.43;2.13;;;;;;;10.50;67.91;97657.34;2621472;39;20430;-63
2022/02/17 04:49:33;;;;;;;8.77;2.00;;;;;;;10.46;66.98;97663.31;2624427;54;20073;-63
2022/02/17 04:52:05;;;;;;;7.95;2.22;;;;;;;10.39;66.90;97650.97;2623346;47;20036;-63
2022/02/17 04:54:38;;;;;;;11.73;2.80;;;;;;;10.36;67.00;97688.38;2625977;39;20398;-63
2022/02/17 04:57:08;;;;;;;11.13;2.53;;;;;;;10.34;66.85;97693.09;2621523;54;20162;-63
2022/02/17 04:59:41;;;;;;;9.98;1.98;;;;;;;10.33;66.49;97674.81;2621882;54;20022;-63
2022/02/17 05:02:10;;;;;;;11.23;3.45;;;;;;;10.26;66.30;97687.28;2622266;47;20042;-63
2022/02/17 05:04:56;;;;;;;11.60;2.55;;;;;;;10.26;66.14;97680.16;2622189;54;20026;-64
2022/02/17 05:07:30;;;;;;;11.93;2.33;;;;;;;10.25;65.58;97691.75;2621224;47;20033;-64
2022/02/17 05:10:03;;;;;;;10.68;2.55;;;;;;;10.22;66.09;97696.63;2621239;54;20022;-65
2022/02/17 05:12:41;;;;;;;14.07;3.33;;;;;;;10.24;65.30;97713.06;2621059;54;20025;-65
2022/02/17 05:15:11;;;;;;;11.88;3.22;;;;;;;10.18;66.01;97712.91;2621587;54;20560;-62
2022/02/17 05:17:45;;;;;;;;;;;;;;;10.18;64.49;97710.25;2620741;54;20063;-62
2022/02/17 05:20:18;;;;;;;11.50;2.42;;;;;;;10.18;65.10;97718.19;2620623;47;19950;-62
2022/02/17 05:23:10;;;;;;;13.32;3.17;;;;;;;10.14;64.85;97724.91;2620778;54;20022;-63
2022/02/17 05:26:02;;;;;;;11.27;2.88;;;;;;;10.13;64.59;97723.31;2621506;54;20041;-61
2022/02/17 05:28:43;;;;;;;10.90;3.25;;;;;;;10.06;65.04;97730.47;2621129;47;20030;-63
2022/02/17 05:31:42;;;;;;;16.17;3.22;;;;;;;10.07;64.53;97741.84;2621715;54;20037;-62
2022/02/17 05:34:28;;;;;;;12.75;4.03;;;;;;;10.07;64.17;97755.03;2622351;47;20034;-62
2022/02/17 05:37:17;;;;;;;10.50;2.85;;;;;;;10.01;64.88;97748.00;2621368;47;20030;-62
2022/02/17 05:40:08;;;;;;;18.90;4.18;;;;;;;9.95;64.59;97740.91;2622475;54;20057;-62
2022/02/17 05:42:40;;;;;;;14.40;3.13;;;;;;;9.97;64.73;97757.34;2623146;39;20220;-62
2022/02/17 05:45:12;;;;;;;;;;;;;;;9.93;64.45;97746.41;2622366;54;20537;-63
2022/02/17 05:47:43;;;;;;;18.98;4.00;;;;;;;9.89;64.79;97738.13;2622010;54;19947;-62
2022/02/17 05:50:12;;;;;;;15.32;2.88;;;;;;;9.91;64.58;97741.31;2622163;54;20026;-62
2022/02/17 05:52:42;;;;;;;15.07;3.42;;;;;;;9.92;63.89;97735.06;2622846;54;20033;-62
2022/02/17 05:55:12;;;;;;;17.50;3.72;;;;;;;9.88;64.51;97744.41;2622066;54;20035;-62
2022/02/17 05:57:44;;;;;;;12.52;3.03;;;;;;;9.87;64.62;97732.22;2621936;54;20041;-62
2022/02/17 06:00:16;;;;;;;15.70;3.80;;;;;;;9.86;64.20;97743.81;2622219;39;20462;-62
2022/02/17 06:02:47;;;;;;;12.02;2.90;;;;;;;9.87;64.10;97739.34;2620047;54;20022;-61
2022/02/17 06:05:17;;;;;;;20.65;3.92;;;;;;;9.88;64.07;97733.88;2620480;54;20030;-64
2022/02/17 06:07:47;;;;;;;17.00;3.33;;;;;;;9.92;64.00;97740.34;2621186;46;20023;-62
2022/02/17 06:10:22;;;;;;;19.23;3.95;;;;;;;9.95;64.14;97743.56;2622207;54;20033;-64
2022/02/17 06:12:57;;;;;;;22.15;4.13;;;;;;;10.01;63.67;97743.50;2622384;54;20081;-62
2022/02/17 06:15:27;;;;;;;18.50;3.83;;;;;;;10.05;63.74;97744.69;2623056;54;20034;-64
2022/02/17 06:17:57;;;;;;;13.40;3.38;;;;;;;10.07;63.97;97755.84;2623101;54;20046;-62
2022/02/17 06:20:27;;;;;;;18.00;4.40;;;;;;;10.11;63.97;97753.59;2623949;54;20098;-62
2022/02/17 06:22:57;;;;;;;15.70;3.67;;;;;;;10.14;63.90;97763.72;2625030;54;20133;-62
2022/02/17 06:25:27;;;;;;;13.45;3.85;;;;;;;10.16;63.92;97773.06;2624743;54;20061;-62
2022/02/17 06:28:03;;;;;;;24.15;4.72;;;;;;;10.17;64.13;97777.31;2624414;39;20418;-62
2022/02/17 06:30:33;;;;;;;16.40;3.47;;;;;;;10.21;63.69;97766.31;2622572;54;20046;-61
2022/02/17 06:33:03;;;;;;;12.98;4.18;;;;;;;10.21;63.69;97775.06;2620978;54;20073;-63
2022/02/17 06:35:36;;;;;;;14.45;3.90;;;;;;;10.22;63.56;97771.38;2619852;54;20031;-61
2022/02/17 06:38:07;;;;;;;14.40;3.85;;;;;;;10.25;63.78;97788.69;2620273;54;20083;-61
2022/02/17 06:40:37;;;;;;;17.33;4.15;;;;;;;10.30;63.67;97796.75;2620496;47;20034;-66
2022/02/17 06:43:11;;;;;;;23.25;4.65;;;;;;;10.30;64.17;97800.19;2622539;39;20238;-62
2022/02/17 06:45:43;;;;;;;20.60;4.07;;;;;;;10.27;63.07;97828.88;2622413;54;20034;-65
2022/02/17 06:48:19;;;;;;;15.07;3.05;;;;;;;10.31;62.63;97812.38;2622529;39;20444;-66
2022/02/17 06:50:49;;;;;;;17.88;4.00;;;;;;;10.27;62.98;97813.84;2623404;54;20038;-61
2022/02/17 06:53:18;;;;;;;19.35;3.85;;;;;;;10.25;63.10;97817.72;2623489;54;20035;-62
2022/02/17 06:55:48;;;;;;;14.60;4.10;;;;;;;10.20;62.49;97822.78;2623588;54;20038;-61
2022/02/17 06:58:20;;;;;;;17.08;5.25;;;;;;;10.16;62.64;97836.44;2623205;54;20045;-63
2022/02/17 07:00:50;;;;;;;16.77;4.38;;;;;;;10.19;61.14;97851.03;2623420;54;20123;-64
2022/02/17 07:03:20;;;;;;;16.02;4.53;;;;;;;10.19;61.44;97861.59;2622568;54;20081;-66
2022/02/17 07:05:49;;;;;;;13.63;3.22;;;;;;;10.20;60.23;97862.41;2621616;47;20026;-66
2022/02/17 07:08:19;;;;;;;15.02;3.22;;;;;;;10.20;59.04;97867.69;2621795;39;20426;-60
2022/02/17 07:10:59;;;;;;;15.25;3.42;;;;;;;10.14;56.83;97879.94;2621775;54;20037;-61
2022/02/17 07:13:33;;;;;;;14.68;3.45;;;;;;;10.17;57.34;97882.97;2622012;54;20030;-62
2022/02/17 07:16:03;;;;;;;;;;;;;;;10.14;57.85;97883.38;2622206;54;20549;-61
2022/02/17 07:18:33;;;;;;;16.67;3.58;;;;;;;10.16;58.57;97883.97;2622460;54;19950;-63
2022/02/17 07:21:05;;;;;;;23.60;4.63;;;;;;;10.16;57.74;97881.34;2621279;54;20042;-63
2022/02/17 07:23:34;;;;;;;23.58;4.47;;;;;;;10.18;56.52;97892.50;2622041;54;20032;-62
2022/02/17 07:26:04;;;;;;;21.90;3.72;;;;;;;10.20;55.38;97879.06;2622165;54;20039;-66
2022/02/17 07:28:37;;;;;;;19.80;4.20;;;;;;;10.17;55.61;97908.56;2622623;39;20442;-61
2022/02/17 07:31:07;;;;;;;21.50;5.03;;;;;;;10.16;55.76;97915.69;2622285;54;20074;-63
2022/02/17 07:33:37;;;;;;;19.02;4.07;;;;;;;10.15;55.38;97934.34;2622014;54;20041;-62
2022/02/17 07:36:09;;;;;;;19.73;4.40;;;;;;;10.16;54.97;97943.88;2623151;54;20038;-64
2022/02/17 07:38:54;;;;;;;21.23;3.92;;;;;;;10.07;55.30;97951.25;2623552;54;20034;-64
2022/02/17 07:41:24;;;;;;;22.38;5.03;;;;;;;10.08;55.05;97968.75;2623517;54;20030;-64
2022/02/17 07:44:00;;;;;;;17.70;4.70;;;;;;;10.11;55.32;98007.91;2623651;54;20037;-62
2022/02/17 07:46:29;;;;;;;17.77;4.60;;;;;;;10.09;55.36;97975.63;2624625;54;20077;-64
2022/02/17 07:49:00;;;;;;;24.10;4.35;;;;;;;10.06;55.00;97973.41;2624557;54;20041;-63
2022/02/17 07:51:29;;;;;;;21.27;4.38;;;;;;;10.07;55.78;97974.22;2624424;54;20558;-63
2022/02/17 07:54:00;;;;;;;23.52;4.80;;;;;;;10.11;56.04;98005.28;2624371;54;20042;-62
2022/02/17 07:56:29;;;;;;;22.38;5.95;;;;;;;10.12;55.96;97991.06;2626154;54;20042;-62
2022/02/17 07:59:02;;;;;;;25.55;5.22;;;;;;;10.12;56.21;98011.34;2625768;54;20035;-62
2022/02/17 08:01:32;;;;;;;19.20;4.90;;;;;;;10.16;56.15;98010.75;2625619;54;20046;-62
2022/02/17 08:04:01;;;;;;;26.70;4.75;;;;;;;10.14;56.00;98023.34;2625263;54;20038;-62
2022/02/17 08:06:31;;;;;;;29.40;5.97;;;;;;;10.17;56.04;97990.44;2625675;54;20066;-62
2022/02/17 08:09:12;;;;;;;39.75;13.90;;;;;;;10.16;55.79;98013.41;2625592;54;20031;-62
2022/02/17 08:11:42;;;;;;;22.00;6.32;;;;;;;10.16;55.98;98013.41;2624716;54;20569;-62
2022/02/17 08:14:14;;;;;;;34.95;13.13;;;;;;;10.17;56.23;98030.06;2623751;47;20062;-61
2022/02/17 08:16:43;;;;;;;25.00;7.13;;;;;;;10.16;56.17;98023.97;2624592;54;20026;-62
2022/02/17 08:19:13;;;;;;;24.35;5.78;;;;;;;10.17;56.08;98015.00;2624217;54;20054;-62
2022/02/17 08:21:45;;;;;;;27.02;6.22;;;;;;;10.16;55.94;98016.03;2623906;54;20025;-63
2022/02/17 08:24:16;;;;;;;24.98;5.15;;;;;;;10.17;55.66;98028.22;2623971;54;20046;-63
2022/02/17 08:26:45;;;;;;;21.20;5.05;;;;;;;10.25;56.19;98007.91;2624569;54;20026;-62
2022/02/17 08:29:18;;;;;;;27.58;4.55;;;;;;;10.24;55.73;98028.19;2624566;54;20027;-63
2022/02/17 08:31:49;;;;;;;28.38;6.10;;;;;;;10.28;56.34;98024.13;2625291;54;20033;-63
2022/02/17 08:34:19;;;;;;;26.13;5.80;;;;;;;10.27;56.27;98038.34;2623610;54;20030;-62
2022/02/17 08:36:51;;;;;;;23.08;5.50;;;;;;;10.23;56.79;98055.63;2623743;54;20034;-61
2022/02/17 08:39:21;;;;;;;22.25;5.63;;;;;;;10.25;56.55;98031.69;2623246;54;20050;-62
2022/02/17 08:41:51;;;;;;;23.25;5.10;;;;;;;10.26;57.38;98035.94;2623065;54;20035;-62
2022/02/17 08:44:23;;;;;;;19.70;5.22;;;;;;;10.37;57.16;98061.72;2622996;54;20034;-62
2022/02/17 08:46:53;;;;;;;22.40;5.22;;;;;;;10.37;57.29;98049.31;2622762;54;20158;-62
2022/02/17 08:49:22;;;;;;;26.45;4.95;;;;;;;10.40;57.98;98070.00;2622235;54;20030;-62
2022/02/17 08:51:52;;;;;;;24.27;4.53;;;;;;;10.43;57.94;98073.25;2622604;54;20022;-62
2022/02/17 08:54:21;;;;;;;21.65;5.10;;;;;;;10.38;57.86;98064.13;2622739;54;20045;-64
2022/02/17 08:56:51;;;;;;;21.70;5.03;;;;;;;10.35;58.30;98079.59;2623402;54;20045;-63
2022/02/17 08:59:23;;;;;;;22.33;5.63;;;;;;;10.38;58.60;98072.06;2623096;54;20030;-61
2022/02/17 09:01:56;;;;;;;26.13;5.53;;;;;;;10.42;58.16;98069.81;2625794;39;20411;-62
2022/02/17 09:04:27;;;;;;;28.45;6.35;;;;;;;10.39;57.89;98080.78;2624001;46;20047;-62
2022/02/17 09:06:56;;;;;;;27.23;5.95;;;;;;;10.39;57.53;98089.53;2623570;54;20026;-62
2022/02/17 09:09:26;;;;;;;32.33;5.70;;;;;;;10.40;57.71;98087.69;2622136;54;20038;-62
2022/02/17 09:11:56;;;;;;;33.08;6.38;;;;;;;10.45;57.43;98092.34;2621532;54;20046;-63
2022/02/17 09:14:28;;;;;;;32.25;6.38;;;;;;;10.44;57.59;98093.38;2621837;39;20454;-63
2022/02/17 09:16:58;;;;;;;28.23;6.53;;;;;;;10.49;57.33;98097.03;2623692;39;20120;-66
2022/02/17 09:19:28;;;;;;;32.75;6.43;;;;;;;10.50;57.38;98079.34;2622753;54;20045;-66
2022/02/17 09:21:59;;;;;;;30.33;7.18;;;;;;;10.50;57.02;98074.88;2622794;54;20050;-66
2022/02/17 09:24:29;;;;;;;29.45;6.13;;;;;;;10.44;57.66;98099.47;2622601;54;20034;-62
2022/02/17 09:26:59;;;;;;;31.52;7.13;;;;;;;10.47;57.90;98100.91;2622964;54;20035;-66
2022/02/17 09:29:31;;;;;;;38.03;7.47;;;;;;;10.48;57.33;98100.66;2622596;39;20411;-62
2022/02/17 09:32:20;;;;;;;35.63;6.78;;;;;;;10.32;57.86;98101.13;2622450;54;20118;-63
2022/02/17 09:34:50;;;;;;;41.83;7.15;;;;;;;10.22;59.70;98125.31;2620766;54;20103;-65
2022/02/17 09:37:20;;;;;;;31.25;6.65;;;;;;;10.17;59.92;98117.22;2621373;54;20046;-64
2022/02/17 09:39:51;;;;;;;26.35;5.70;;;;;;;10.17;59.46;98123.31;2620998;54;20068;-65
2022/02/17 09:42:21;;;;;;;38.72;7.38;;;;;;;10.33;58.83;98129.19;2621202;54;20031;-64
2022/02/17 09:44:54;;;;;;;32.03;6.95;;;;;;;10.50;58.61;98138.28;2623129;54;20042;-62
2022/02/17 09:47:24;;;;;;;31.42;6.78;;;;;;;10.56;57.89;98132.16;2624028;54;20593;-63
2022/02/17 09:49:54;;;;;;;36.95;6.60;;;;;;;10.71;58.03;98117.88;2624939;39;20387;-61
2022/02/17 09:52:32;;;;;;;32.28;6.88;;;;;;;10.71;57.57;98117.88;2624640;54;20593;-62
2022/02/17 09:55:02;;;;;;;39.30;7.32;;;;;;;10.74;57.85;98128.84;2624943;54;20541;-62
2022/02/17 09:57:37;;;;;;;27.02;6.55;;;;;;;10.81;57.09;98132.25;2624746;46;20045;-62
2022/02/17 10:00:14;;;;;;;27.13;6.07;;;;;;;10.78;56.53;98134.53;2625121;54;20130;-62
2022/02/17 10:02:45;;;;;;;28.25;6.80;;;;;;;10.76;56.94;98132.09;2625473;54;20039;-63
2022/02/17 10:05:15;;;;;;;33.03;8.70;;;;;;;10.66;58.67;98151.03;2624692;54;20589;-64
2022/02/17 10:07:46;;;;;;;30.58;7.20;;;;;;;10.52;59.48;98146.00;2624229;54;20034;-63
2022/02/17 10:10:19;;;;;;;26.25;6.95;;;;;;;10.33;60.83;98148.50;2624004;54;20023;-65
2022/02/17 10:12:55;;;;;;;24.70;5.53;;;;;;;10.24;62.91;98156.81;2623851;54;20078;-64
2022/02/17 10:15:33;;;;;;;24.30;6.43;;;;;;;10.02;63.96;98180.00;2623803;54;20038;-64
2022/02/17 10:18:05;;;;;;;22.98;6.53;;;;;;;9.79;65.74;98183.03;2623751;54;20022;-62
2022/02/17 10:20:54;;;;;;;26.45;6.28;;;;;;;9.63;67.09;98195.63;2625103;54;20103;-63
2022/02/17 10:23:26;;;;;;;33.50;7.07;;;;;;;9.61;67.62;98189.72;2626067;39;20407;-62
2022/02/17 10:26:05;;;;;;;33.75;7.35;;;;;;;9.51;68.64;98197.22;2623521;54;20030;-63
2022/02/17 10:28:37;;;;;;;33.88;8.27;;;;;;;9.42;69.95;98208.97;2623437;47;20022;-63
2022/02/17 10:31:22;;;;;;;32.83;7.45;;;;;;;9.49;70.31;98203.72;2624031;54;20026;-62
2022/02/17 10:33:54;;;;;;;;;;;;;;;9.58;70.76;98205.94;2624155;54;20014;-63
2022/02/17 10:36:35;;;;;;;42.72;8.40;;;;;;;9.59;71.09;98201.47;2622686;54;19939;-62
2022/02/17 10:39:13;;;;;;;31.98;6.40;;;;;;;9.49;71.90;98208.97;2622931;54;20039;-63
2022/02/17 10:41:50;;;;;;;33.70;8.05;;;;;;;9.51;72.72;98202.50;2622809;39;20403;-62
2022/02/17 10:44:23;;;;;;;42.95;8.98;;;;;;;9.68;72.98;98200.28;2622972;47;20770;-63
2022/02/17 10:46:55;;;;;;;38.47;9.40;;;;;;;9.70;72.70;98208.81;2623879;54;20576;-62
2022/02/17 10:49:26;;;;;;;32.28;7.97;;;;;;;9.77;72.79;98201.72;2623798;54;20045;-62
2022/02/17 10:52:03;;;;;;;32.97;8.18;;;;;;;9.78;72.13;98192.78;2624349;39;20528;-63
2022/02/17 10:54:33;;;;;;;32.65;6.72;;;;;;;9.89;71.59;98197.47;2623733;54;20034;-62
2022/02/17 10:57:05;;;;;;;50.75;11.43;;;;;;;9.95;70.85;98211.66;2623719;54;20030;-62
2022/02/17 11:02:25;;;;;;;33.85;8.00;;;;;;;9.90;69.98;98209.63;2624317;39;20450;-63
2022/02/17 11:05:05;;;;;;;28.73;6.15;;;;;;;9.87;69.03;98211.88;2622465;54;20510;-64
2022/02/17 11:07:34;;;;;;;38.30;8.27;;;;;;;9.84;68.49;98218.38;2622232;54;20065;-62
2022/02/17 11:10:09;;;;;;;30.63;6.45;;;;;;;9.84;68.71;98221.03;2623069;54;20037;-64
2022/02/17 11:12:41;;;;;;;36.08;7.07;;;;;;;9.94;67.96;98207.41;2624742;54;20081;-62
2022/02/17 11:15:17;;;;;;;28.73;6.03;;;;;;;10.09;66.91;98205.38;2624042;54;20038;31
2022/02/17 11:17:51;;;;;;;20.83;5.03;;;;;;;10.20;64.17;98222.44;2617812;54;20037;-67
2022/02/17 11:20:21;;;;;;;27.10;6.25;;;;;;;10.23;63.04;98247.63;2618455;54;20031;-68
2022/02/17 11:22:52;;;;;;;24.65;5.75;;;;;;;10.29;62.06;98221.25;2617921;54;20031;-67
2022/02/17 11:25:35;;;;;;;25.52;4.95;;;;;;;10.40;61.87;98223.25;2617746;54;20042;-67
2022/02/17 11:28:09;;;;;;;25.80;5.53;;;;;;;10.37;60.47;98228.16;2617818;54;20026;-67
2022/02/17 11:30:40;;;;;;;19.27;5.35;;;;;;;10.31;61.00;98227.13;2617862;54;20033;-66
2022/02/17 11:33:29;;;;;;;22.33;5.00;;;;;;;10.32;60.68;98241.16;2617877;54;20034;-66
2022/02/17 11:36:00;;;;;;;22.02;5.28;;;;;;;10.29;61.14;98239.75;2617310;47;20027;-67
2022/02/17 11:38:33;;;;;;;23.95;5.57;;;;;;;10.29;61.47;98249.50;2617803;54;20042;-71
2022/02/17 11:41:10;;;;;;;19.52;4.50;;;;;;;10.32;60.82;98249.06;2617791;54;20031;-67
2022/02/17 11:43:41;;;;;;;19.48;5.18;;;;;;;10.40;60.90;98257.59;2617178;51;20027;-67
2022/02/17 11:46:14;;;;;;;20.33;4.63;;;;;;;10.45;59.60;98261.47;2617247;54;20033;-67
2022/02/17 11:48:51;;;;;;;17.75;3.28;;;;;;;10.34;58.44;98253.16;2618572;31;20533;-65
2022/02/17 11:51:22;;;;;;;17.10;3.50;;;;;;;10.34;59.46;98276.94;2617707;54;20068;-67
2022/02/17 11:54:15;;;;;;;11.52;3.15;;;;;;;10.36;59.84;98284.66;2617720;54;20031;-65
2022/02/17 11:56:47;;;;;;;17.88;4.45;;;;;;;10.35;60.25;98275.09;2617801;54;20034;-66
2022/02/17 11:59:21;;;;;;;;;;;;;;;10.34;60.70;98282.22;2618224;54;20058;-67
2022/02/17 12:01:51;;;;;;;17.85;5.25;;;;;;;10.32;61.04;98288.72;2618006;54;19939;-66
2022/02/17 12:04:43;;;;;;;17.92;4.40;;;;;;;10.35;60.79;98289.13;2617941;54;20126;-66